createdAt,value
2018-06-16T00:01:30.856Z,8.40
2018-06-16T00:04:00.274Z,8.17
2018-06-16T00:06:29.316Z,9.50
2018-06-16T00:08:57.822Z,9.37
2018-06-16T00:11:26.487Z,8.57
2018-06-16T00:13:55.080Z,8.13
2018-06-16T00:16:23.602Z,8.90
2018-06-16T00:18:52.168Z,8.47
2018-06-16T00:21:20.720Z,8.30
2018-06-16T00:23:49.280Z,8.63
2018-06-16T00:26:17.776Z,10.53
2018-06-16T00:28:46.372Z,8.47
2018-06-16T00:31:14.927Z,8.10
2018-06-16T00:33:43.259Z,8.23
2018-06-16T00:36:11.798Z,7.90
2018-06-16T00:38:41.543Z,7.67
2018-06-16T00:41:10.629Z,9.00
2018-06-16T00:43:39.563Z,8.70
2018-06-16T00:46:08.337Z,8.17
2018-06-16T00:48:36.931Z,10.00
2018-06-16T00:51:05.555Z,8.90
2018-06-16T00:53:34.121Z,8.87
2018-06-16T00:56:02.428Z,7.97
2018-06-16T00:58:30.963Z,7.63
2018-06-16T01:00:59.481Z,8.63
2018-06-16T01:03:28.042Z,7.23
2018-06-16T01:05:56.581Z,9.63
2018-06-16T01:08:25.171Z,7.47
2018-06-16T01:10:53.663Z,7.67
2018-06-16T01:13:22.240Z,9.53
2018-06-16T01:15:50.768Z,7.67
2018-06-16T01:18:19.044Z,7.13
2018-06-16T01:20:47.278Z,8.93
2018-06-16T01:23:15.775Z,7.03
2018-06-16T01:25:44.322Z,6.80
2018-06-16T01:28:12.846Z,7.30
2018-06-16T01:30:41.406Z,7.17
2018-06-16T01:33:09.951Z,8.00
2018-06-16T01:35:38.521Z,6.90
2018-06-16T01:38:07.032Z,6.90
2018-06-16T01:40:35.615Z,7.63
2018-06-16T01:43:04.141Z,6.70
2018-06-16T01:45:32.699Z,6.90
2018-06-16T01:48:02.261Z,7.53
2018-06-16T01:50:31.387Z,7.03
2018-06-16T01:52:59.968Z,6.90
2018-06-16T01:55:28.552Z,6.33
2018-06-16T01:57:57.085Z,8.23
2018-06-16T02:00:25.379Z,6.30
2018-06-16T02:02:53.907Z,7.33
2018-06-16T02:05:22.423Z,9.60
2018-06-16T02:07:50.662Z,7.47
2018-06-16T02:10:19.197Z,7.70
2018-06-16T02:12:47.757Z,7.40
2018-06-16T02:15:16.254Z,7.83
2018-06-16T02:17:44.520Z,9.00
2018-06-16T02:20:13.060Z,9.90
2018-06-16T02:22:41.637Z,10.10
2018-06-16T02:25:10.151Z,7.50
2018-06-16T02:27:38.710Z,8.33
2018-06-16T02:30:07.264Z,8.27
2018-06-16T02:32:35.883Z,9.03
2018-06-16T02:35:04.461Z,8.97
2018-06-16T02:37:33.055Z,8.53
2018-06-16T02:40:02.649Z,8.03
2018-06-16T02:42:32.357Z,8.33
2018-06-16T02:45:01.290Z,9.23
2018-06-16T02:47:29.529Z,11.83
2018-06-16T02:49:58.996Z,8.67
2018-06-16T02:52:27.547Z,9.33
2018-06-16T02:54:56.121Z,9.90
2018-06-16T02:57:24.649Z,10.27
2018-06-16T02:59:53.260Z,9.83
2018-06-16T03:02:21.865Z,10.97
2018-06-16T03:04:50.470Z,9.93
2018-06-16T03:07:18.918Z,9.90
2018-06-16T03:09:47.437Z,11.13
2018-06-16T03:12:15.713Z,8.70
2018-06-16T03:14:43.951Z,10.20
2018-06-16T03:17:12.551Z,11.70
2018-06-16T03:19:41.070Z,10.97
2018-06-16T03:22:09.800Z,10.07
2018-06-16T03:24:38.414Z,11.33
2018-06-16T03:27:06.939Z,12.13
2018-06-16T03:29:35.479Z,12.50
2018-06-16T03:32:03.803Z,12.40
2018-06-16T03:34:33.308Z,11.50
2018-06-16T03:37:03.281Z,11.30
2018-06-16T03:39:32.439Z,12.40
2018-06-16T03:42:01.540Z,12.37
2018-06-16T03:44:30.527Z,10.70
2018-06-16T03:46:59.060Z,10.07
2018-06-16T03:49:27.642Z,12.47
2018-06-16T03:51:56.191Z,12.30
2018-06-16T03:54:24.725Z,12.80
2018-06-16T03:56:53.336Z,9.90
2018-06-16T03:59:21.903Z,10.83
2018-06-16T04:01:50.505Z,10.73
2018-06-16T04:04:19.025Z,13.93
2018-06-16T04:06:47.329Z,10.93
2018-06-16T04:09:15.842Z,10.37
2018-06-16T04:11:44.501Z,11.30
2018-06-16T04:14:13.039Z,10.57
2018-06-16T04:16:41.654Z,12.87
2018-06-16T04:19:10.219Z,11.33
2018-06-16T04:21:38.507Z,10.90
2018-06-16T04:24:07.107Z,9.77
2018-06-16T04:26:35.677Z,11.87
2018-06-16T04:29:04.206Z,9.87
2018-06-16T04:31:33.877Z,11.73
2018-06-16T04:34:02.431Z,9.80
2018-06-16T04:36:31.742Z,11.77
2018-06-16T04:39:00.035Z,13.40
2018-06-16T04:41:29.532Z,9.70
2018-06-16T04:43:58.050Z,10.40
2018-06-16T04:46:26.638Z,10.37
2018-06-16T04:48:55.194Z,10.27
2018-06-16T04:51:23.790Z,10.60
2018-06-16T04:53:52.343Z,12.27
2018-06-16T04:56:20.939Z,12.90
2018-06-16T04:58:49.518Z,11.20
2018-06-16T05:01:18.015Z,10.00
2018-06-16T05:03:46.597Z,11.93
2018-06-16T05:06:15.115Z,13.87
2018-06-16T05:08:43.748Z,11.20
2018-06-16T05:11:12.389Z,10.03
2018-06-16T05:13:40.972Z,12.53
2018-06-16T05:16:09.498Z,11.07
2018-06-16T05:18:38.024Z,11.87
2018-06-16T05:21:06.615Z,10.00
2018-06-16T05:23:35.146Z,10.27
2018-06-16T05:26:04.418Z,13.93
2018-06-16T05:28:34.423Z,11.50
2018-06-16T05:31:04.201Z,9.63
2018-06-16T05:33:33.913Z,9.63
2018-06-16T05:36:03.372Z,10.50
2018-06-16T05:38:32.269Z,10.23
2018-06-16T05:41:01.315Z,10.67
2018-06-16T05:43:29.888Z,10.93
2018-06-16T05:45:58.422Z,9.43
2018-06-16T05:48:26.994Z,10.77
2018-06-16T05:50:55.270Z,9.50
2018-06-16T05:53:23.550Z,10.13
2018-06-16T05:55:51.805Z,9.30
2018-06-16T05:58:20.410Z,8.80
2018-06-16T06:00:48.952Z,8.27
2018-06-16T06:03:17.532Z,8.60
2018-06-16T06:05:46.105Z,8.57
2018-06-16T06:08:14.656Z,7.90
2018-06-16T06:10:43.433Z,7.27
2018-06-16T06:13:11.964Z,6.40
2018-06-16T06:15:40.644Z,7.80
2018-06-16T06:18:09.188Z,7.80
2018-06-16T06:20:37.710Z,6.60
2018-06-16T06:23:06.271Z,6.77
2018-06-16T06:25:34.808Z,7.00
2018-06-16T06:28:03.686Z,6.80
2018-06-16T06:30:33.329Z,8.57
2018-06-16T06:33:01.666Z,6.87
2018-06-16T06:35:30.761Z,6.73
2018-06-16T06:37:59.307Z,7.07
2018-06-16T06:40:27.910Z,7.27
2018-06-16T06:42:56.558Z,7.07
2018-06-16T06:45:25.165Z,6.43
2018-06-16T06:47:53.738Z,6.63
2018-06-16T06:50:22.358Z,6.00
2018-06-16T06:52:50.990Z,7.37
2018-06-16T06:55:19.559Z,7.07
2018-06-16T06:57:48.089Z,6.47
2018-06-16T07:00:16.741Z,6.23
2018-06-16T07:02:45.412Z,6.77
2018-06-16T07:05:13.706Z,6.80
2018-06-16T07:07:41.952Z,7.60
2018-06-16T07:10:10.550Z,6.80
2018-06-16T07:12:38.846Z,6.47
2018-06-16T07:15:07.404Z,6.40
2018-06-16T07:17:35.639Z,6.43
2018-06-16T07:20:04.214Z,6.77
2018-06-16T07:22:33.857Z,6.70
2018-06-16T07:25:03.575Z,7.07
2018-06-16T07:27:32.806Z,5.73
2018-06-16T07:30:02.195Z,6.23
2018-06-16T07:32:30.947Z,9.00
2018-06-16T07:34:59.491Z,6.67
2018-06-16T07:37:28.061Z,6.07
2018-06-16T07:39:56.614Z,7.40
2018-06-16T07:42:25.209Z,6.73
2018-06-16T07:44:53.436Z,6.73
2018-06-16T07:47:22.021Z,6.93
2018-06-16T07:49:50.532Z,6.40
2018-06-16T07:52:19.157Z,6.30
2018-06-16T07:54:47.696Z,5.23
2018-06-16T07:57:18.333Z,4.83
2018-06-16T07:59:46.931Z,5.20
2018-06-16T08:02:15.203Z,4.97
2018-06-16T08:04:43.439Z,5.07
2018-06-16T08:07:12.014Z,5.40
2018-06-16T08:09:40.536Z,5.10
2018-06-16T08:12:08.881Z,6.00
2018-06-16T08:14:37.482Z,5.17
2018-06-16T08:17:06.577Z,6.17
2018-06-16T08:19:35.143Z,4.67
2018-06-16T08:22:04.373Z,3.70
2018-06-16T08:24:34.070Z,4.10
2018-06-16T08:27:04.279Z,4.17
2018-06-16T08:29:33.533Z,5.20
2018-06-16T08:32:02.808Z,5.60
2018-06-16T08:34:31.365Z,4.20
2018-06-16T08:37:00.743Z,6.33
2018-06-16T08:39:29.427Z,5.13
2018-06-16T08:41:58.025Z,3.57
2018-06-16T08:44:26.646Z,3.67
2018-06-16T08:46:55.231Z,5.90
2018-06-16T08:49:23.547Z,5.10
2018-06-16T08:51:52.187Z,2.40
2018-06-16T08:54:20.825Z,3.95
2018-06-16T08:56:49.507Z,4.35
2018-06-16T08:59:18.163Z,3.45
2018-06-16T09:01:46.844Z,3.35
2018-06-16T09:04:15.473Z,3.98
2018-06-16T09:06:44.110Z,5.80
2018-06-16T09:09:12.679Z,3.92
2018-06-16T09:11:41.130Z,7.17
2018-06-16T09:14:09.768Z,6.45
2018-06-16T09:16:38.338Z,4.92
2018-06-16T09:19:06.672Z,5.87
2018-06-16T09:21:35.247Z,5.25
2018-06-16T09:24:04.950Z,4.55
2018-06-16T09:26:34.513Z,4.47
2018-06-16T09:29:03.413Z,5.05
2018-06-16T09:31:32.555Z,4.87
2018-06-16T09:34:01.182Z,5.15
2018-06-16T09:36:29.831Z,5.53
2018-06-16T09:38:58.662Z,6.00
2018-06-16T09:41:27.684Z,6.50
2018-06-16T09:43:57.404Z,6.72
2018-06-16T09:46:26.278Z,5.53
2018-06-16T09:48:55.626Z,5.45
2018-06-16T09:51:24.492Z,5.80
2018-06-16T09:53:53.309Z,7.28
2018-06-16T09:56:22.089Z,5.35
2018-06-16T09:58:52.056Z,7.97
2018-06-16T10:01:20.857Z,6.03
2018-06-16T10:03:49.860Z,5.75
2018-06-16T10:06:18.691Z,7.45
2018-06-16T10:08:47.301Z,5.60
2018-06-16T10:11:16.242Z,5.50
2018-06-16T10:13:45.047Z,8.55
2018-06-16T10:16:13.804Z,9.63
2018-06-16T10:18:42.555Z,5.15
2018-06-16T10:21:11.631Z,6.30
2018-06-16T10:23:40.346Z,5.42
2018-06-16T10:26:09.335Z,5.72
2018-06-16T10:28:38.074Z,6.05
2018-06-16T10:31:07.159Z,6.45
2018-06-16T10:33:35.901Z,6.12
2018-06-16T10:36:05.442Z,5.40
2018-06-16T10:38:35.414Z,7.40
2018-06-16T10:41:04.896Z,8.73
2018-06-16T10:43:33.816Z,5.80
2018-06-16T10:46:03.479Z,5.97
2018-06-16T10:48:33.298Z,6.83
2018-06-16T10:51:02.018Z,5.55
2018-06-16T10:53:30.952Z,5.72
2018-06-16T10:56:17.721Z,5.75
2018-06-16T10:58:53.737Z,5.83
2018-06-16T11:01:31.065Z,5.97
2018-06-16T11:04:00.317Z,5.10
2018-06-16T11:06:29.179Z,6.35
2018-06-16T11:08:58.168Z,5.80
2018-06-16T11:11:27.056Z,5.45
2018-06-16T11:13:55.769Z,5.22
2018-06-16T11:16:24.658Z,7.08
2018-06-16T11:18:53.399Z,6.42
2018-06-16T11:21:22.287Z,5.95
2018-06-16T11:23:51.172Z,5.97
2018-06-16T11:26:19.920Z,7.17
2018-06-16T11:28:48.646Z,5.60
2018-06-16T11:31:17.567Z,5.85
2018-06-16T11:33:46.280Z,5.47
2018-06-16T11:36:15.035Z,7.20
2018-06-16T11:38:44.064Z,5.15
2018-06-16T11:41:12.731Z,6.87
2018-06-16T11:43:41.430Z,5.97
2018-06-16T11:46:10.141Z,5.72
2018-06-16T11:48:39.457Z,5.70
2018-06-16T11:51:08.350Z,5.95
2018-06-16T11:53:38.312Z,6.50
2018-06-16T11:56:07.319Z,5.83
2018-06-16T11:58:36.155Z,6.15
2018-06-16T12:01:04.743Z,10.32
2018-06-16T12:03:33.833Z,5.67
2018-06-16T12:06:02.291Z,5.55
2018-06-16T12:08:30.937Z,7.00
2018-06-16T12:10:59.648Z,5.60
2018-06-16T12:13:28.431Z,6.50
2018-06-16T12:15:57.104Z,6.75
2018-06-16T12:18:26.416Z,7.80
2018-06-16T12:20:55.146Z,5.97
2018-06-16T12:23:33.161Z,6.20
2018-06-16T12:26:03.627Z,6.08
2018-06-16T12:28:32.889Z,7.70
2018-06-16T12:31:02.101Z,6.33
2018-06-16T12:33:31.272Z,5.47
2018-06-16T12:36:00.083Z,5.90
2018-06-16T12:38:28.756Z,5.60
2018-06-16T12:40:57.417Z,6.30
2018-06-16T12:43:26.608Z,6.10
2018-06-16T12:45:55.833Z,5.40
2018-06-16T12:48:25.088Z,5.20
2018-06-16T12:50:53.942Z,5.05
2018-06-16T12:53:22.813Z,5.30
2018-06-16T12:55:52.019Z,5.95
2018-06-16T12:58:20.770Z,5.80
2018-06-16T13:00:49.134Z,5.35
2018-06-16T13:03:17.892Z,5.60
2018-06-16T13:05:46.600Z,5.12
2018-06-16T13:08:15.444Z,5.37
2018-06-16T13:10:45.283Z,5.17
2018-06-16T13:13:14.385Z,4.83
2018-06-16T13:15:45.222Z,5.45
2018-06-16T13:18:14.293Z,5.92
2018-06-16T13:20:43.019Z,4.78
2018-06-16T13:23:11.888Z,5.45
2018-06-16T13:25:40.668Z,5.10
2018-06-16T13:28:09.316Z,4.65
2018-06-16T13:30:38.061Z,4.47
2018-06-16T13:33:07.961Z,5.25
2018-06-16T13:35:38.934Z,5.42
2018-06-16T13:38:15.269Z,4.70
2018-06-16T13:41:03.045Z,4.92
2018-06-16T13:43:33.156Z,4.90
2018-06-16T13:46:02.541Z,4.97
2018-06-16T13:48:48.036Z,5.80
2018-06-16T13:51:16.927Z,4.83
2018-06-16T13:53:46.093Z,4.90
2018-06-16T13:56:15.271Z,5.05
2018-06-16T13:58:43.937Z,5.37
2018-06-16T14:01:12.588Z,5.50
2018-06-16T14:03:41.293Z,4.90
2018-06-16T14:06:10.468Z,6.33
2018-06-16T14:08:39.117Z,5.42
2018-06-16T14:11:08.176Z,5.87
2018-06-16T14:13:37.109Z,5.17
2018-06-16T14:16:07.526Z,5.00
2018-06-16T14:18:36.330Z,5.12
2018-06-16T14:21:05.896Z,6.30
2018-06-16T14:23:35.578Z,4.97
2018-06-16T14:26:05.087Z,5.40
2018-06-16T14:28:33.401Z,4.87
2018-06-16T14:31:02.625Z,5.33
2018-06-16T14:33:31.482Z,5.20
2018-06-16T14:36:00.046Z,4.60
2018-06-16T14:38:28.640Z,4.50
2018-06-16T14:41:02.506Z,5.45
2018-06-16T14:43:31.416Z,4.95
2018-06-16T14:46:00.123Z,5.47
2018-06-16T14:48:29.006Z,6.45
2018-06-16T14:51:03.769Z,6.87
2018-06-16T14:53:33.400Z,5.60
2018-06-16T14:56:02.545Z,7.95
2018-06-16T14:58:33.519Z,5.65
2018-06-16T15:01:03.378Z,5.95
2018-06-16T15:03:34.583Z,6.22
2018-06-16T15:06:04.012Z,6.55
2018-06-16T15:08:33.594Z,7.22
2018-06-16T15:11:02.856Z,5.78
2018-06-16T15:13:44.994Z,8.30
2018-06-16T15:16:13.771Z,6.22
2018-06-16T15:18:42.447Z,6.10
2018-06-16T15:21:11.583Z,6.12
2018-06-16T15:23:40.316Z,6.83
2018-06-16T15:26:09.147Z,6.17
2018-06-16T15:28:38.100Z,6.55
2018-06-16T15:31:06.767Z,6.42
2018-06-16T15:33:35.975Z,7.03
2018-06-16T15:36:05.346Z,5.15
2018-06-16T15:38:34.681Z,7.17
2018-06-16T15:41:04.235Z,6.97
2018-06-16T15:43:33.684Z,7.35
2018-06-16T15:46:02.899Z,9.73
2018-06-16T15:48:42.541Z,7.28
2018-06-16T15:51:11.735Z,8.83
2018-06-16T15:53:40.403Z,17.23
2018-06-16T15:56:09.149Z,12.70
2018-06-16T15:58:37.985Z,7.50
2018-06-16T16:01:06.982Z,9.05
2018-06-16T16:03:36.087Z,7.92
2018-06-16T16:06:05.610Z,8.85
2018-06-16T16:08:35.093Z,6.35
2018-06-16T16:11:04.658Z,7.17
2018-06-16T16:13:33.981Z,6.80
2018-06-16T16:16:03.136Z,6.15
2018-06-16T16:18:32.528Z,6.42
2018-06-16T16:21:01.151Z,7.15
2018-06-16T16:23:29.837Z,5.78
2018-06-16T16:25:58.512Z,7.67
2018-06-16T16:28:29.374Z,9.55
2018-06-16T16:30:58.297Z,11.63
2018-06-16T16:33:27.532Z,6.87
2018-06-16T16:35:56.190Z,7.83
2018-06-16T16:38:24.873Z,6.50
2018-06-16T16:40:53.574Z,7.70
2018-06-16T16:43:25.379Z,6.60
2018-06-16T16:45:55.017Z,6.67
2018-06-16T16:48:23.862Z,8.33
2018-06-16T16:50:52.204Z,12.35
2018-06-16T16:53:21.808Z,10.88
2018-06-16T16:55:51.455Z,8.45
2018-06-16T16:58:19.951Z,6.28
2018-06-16T17:00:48.743Z,5.72
2018-06-16T17:03:17.486Z,6.03
2018-06-16T17:05:49.389Z,6.58
2018-06-16T17:08:17.930Z,6.95
2018-06-16T17:10:46.634Z,6.78
2018-06-16T17:13:15.352Z,6.55
2018-06-16T17:15:44.636Z,8.53
2018-06-16T17:18:13.523Z,5.97
2018-06-16T17:20:42.508Z,5.72
2018-06-16T17:23:11.727Z,6.42
2018-06-16T17:25:40.391Z,6.10
2018-06-16T17:28:09.458Z,6.42
2018-06-16T17:30:38.326Z,6.50
2018-06-16T17:33:07.200Z,5.70
2018-06-16T17:35:36.034Z,6.05
2018-06-16T17:38:05.317Z,6.33
2018-06-16T17:40:34.647Z,11.95
2018-06-16T17:43:04.195Z,7.08
2018-06-16T17:45:33.612Z,7.12
2018-06-16T17:48:03.188Z,6.20
2018-06-16T17:50:32.640Z,7.30
2018-06-16T17:53:01.274Z,9.43
2018-06-16T17:55:29.797Z,7.22
2018-06-16T17:57:58.337Z,7.42
2018-06-16T18:00:27.792Z,6.95
2018-06-16T18:02:56.289Z,7.60
2018-06-16T18:05:24.891Z,5.95
2018-06-16T18:07:53.268Z,7.85
2018-06-16T18:10:21.509Z,9.63
2018-06-16T18:12:50.282Z,8.00
2018-06-16T18:15:19.319Z,8.17
2018-06-16T18:17:48.183Z,10.70
2018-06-16T18:20:16.789Z,9.17
2018-06-16T18:22:45.501Z,8.57
2018-06-16T18:25:14.023Z,9.07
2018-06-16T18:27:42.649Z,7.37
2018-06-16T18:30:10.889Z,8.10
2018-06-16T18:32:39.372Z,8.40
2018-06-16T18:35:07.947Z,8.47
2018-06-16T18:37:36.562Z,8.87
2018-06-16T18:40:06.031Z,10.57
2018-06-16T18:42:35.598Z,12.33
2018-06-16T18:45:05.141Z,9.47
2018-06-16T18:47:34.606Z,12.17
2018-06-16T18:50:03.665Z,16.17
2018-06-16T18:52:33.370Z,11.90
2018-06-16T18:55:02.681Z,11.93
2018-06-16T18:57:31.176Z,8.97
2018-06-16T18:59:59.461Z,16.90
2018-06-16T19:02:27.687Z,20.90
2018-06-16T19:04:56.598Z,17.63
2018-06-16T19:07:25.155Z,20.60
2018-06-16T19:09:54.301Z,14.43
2018-06-16T19:12:22.925Z,13.67
2018-06-16T19:14:51.517Z,13.43
2018-06-16T19:17:20.102Z,12.43
2018-06-16T19:19:49.312Z,12.00
2018-06-16T19:22:18.096Z,13.97
2018-06-16T19:24:46.722Z,11.13
2018-06-16T19:27:14.958Z,12.50
2018-06-16T19:29:43.541Z,13.17
2018-06-16T19:32:12.098Z,13.83
2018-06-16T19:34:40.716Z,15.10
2018-06-16T19:37:09.262Z,14.20
2018-06-16T19:39:37.836Z,13.07
2018-06-16T19:42:06.459Z,12.60
2018-06-16T19:44:36.535Z,12.63
2018-06-16T19:47:05.795Z,10.70
2018-06-16T19:49:35.460Z,15.33
2018-06-16T19:52:04.944Z,16.30
2018-06-16T19:54:33.870Z,16.37
2018-06-16T19:57:03.448Z,12.67
2018-06-16T19:59:32.686Z,14.67
2018-06-16T20:02:01.472Z,14.17
2018-06-16T20:04:30.930Z,12.80
2018-06-16T20:06:59.674Z,12.83
2018-06-16T20:09:28.286Z,18.70
2018-06-16T20:11:56.831Z,12.93
2018-06-16T20:14:25.515Z,12.60
2018-06-16T20:16:54.149Z,21.10
2018-06-16T20:19:22.552Z,13.97
2018-06-16T20:21:53.227Z,14.43
2018-06-16T20:24:21.845Z,13.83
2018-06-16T20:26:50.233Z,16.20
2018-06-16T20:29:18.893Z,13.50
2018-06-16T20:31:47.537Z,16.33
2018-06-16T20:34:16.144Z,12.90
2018-06-16T20:36:44.863Z,13.63
2018-06-16T20:39:13.539Z,16.30
2018-06-16T20:41:41.893Z,21.27
2018-06-16T20:44:10.858Z,17.33
2018-06-16T20:46:39.688Z,16.20
2018-06-16T20:49:08.286Z,16.27
2018-06-16T20:51:36.600Z,12.63
2018-06-16T20:54:06.124Z,14.57
2018-06-16T20:56:35.662Z,12.73
2018-06-16T20:59:04.391Z,13.20
2018-06-16T21:01:33.968Z,12.77
2018-06-16T21:04:02.281Z,17.67
2018-06-16T21:06:30.869Z,13.40
2018-06-16T21:08:59.525Z,13.47
2018-06-16T21:11:28.098Z,13.53
2018-06-16T21:13:56.402Z,15.17
2018-06-16T21:16:24.978Z,11.63
2018-06-16T21:18:53.527Z,12.77
2018-06-16T21:21:21.816Z,15.20
2018-06-16T21:23:50.111Z,16.77
2018-06-16T21:26:18.638Z,13.17
2018-06-16T21:28:47.220Z,20.97
2018-06-16T21:31:15.804Z,19.10
2018-06-16T21:33:44.525Z,13.90
2018-06-16T21:36:12.775Z,14.67
2018-06-16T21:38:41.281Z,18.33
2018-06-16T21:41:09.578Z,18.50
2018-06-16T21:43:38.117Z,16.07
2018-06-16T21:46:06.678Z,17.27
2018-06-16T21:48:36.340Z,14.57
2018-06-16T21:51:05.621Z,16.13
2018-06-16T21:53:35.018Z,14.53
2018-06-16T21:56:04.326Z,13.77
2018-06-16T21:58:33.280Z,16.17
2018-06-16T22:01:01.867Z,14.40
2018-06-16T22:03:30.511Z,14.53
2018-06-16T22:05:59.031Z,13.77
2018-06-16T22:08:31.543Z,16.00
2018-06-16T22:11:00.754Z,14.30
2018-06-16T22:13:29.627Z,12.97
2018-06-16T22:15:57.929Z,14.90
2018-06-16T22:18:26.999Z,14.87
2018-06-16T22:20:55.608Z,14.97
2018-06-16T22:23:24.216Z,13.10
2018-06-16T22:25:52.759Z,14.43
2018-06-16T22:28:21.054Z,13.07
2018-06-16T22:30:49.631Z,13.80
2018-06-16T22:33:18.190Z,13.20
2018-06-16T22:35:46.434Z,14.77
2018-06-16T22:38:15.035Z,13.80
2018-06-16T22:40:43.578Z,13.80
2018-06-16T22:43:12.078Z,13.37
2018-06-16T22:45:40.651Z,14.07
2018-06-16T22:48:09.246Z,14.40
2018-06-16T22:50:38.260Z,13.97
2018-06-16T22:53:06.808Z,14.70
2018-06-16T22:55:36.897Z,13.60
2018-06-16T22:58:05.562Z,14.60
2018-06-16T23:00:36.631Z,14.63
2018-06-16T23:03:06.166Z,18.17
2018-06-16T23:05:36.274Z,17.03
2018-06-16T23:08:04.748Z,16.43
2018-06-16T23:10:35.884Z,15.47
2018-06-16T23:13:05.413Z,16.53
2018-06-16T23:15:34.935Z,15.10
2018-06-16T23:18:04.374Z,15.37
2018-06-16T23:20:32.686Z,17.00
2018-06-16T23:23:01.276Z,15.30
2018-06-16T23:25:29.795Z,15.20
2018-06-16T23:27:58.375Z,20.50
2018-06-16T23:30:26.938Z,17.43
2018-06-16T23:32:55.499Z,14.77
2018-06-16T23:35:24.039Z,18.57
2018-06-16T23:37:52.321Z,14.83
2018-06-16T23:40:20.589Z,19.37
2018-06-16T23:42:48.889Z,20.67
2018-06-16T23:45:17.444Z,22.63
2018-06-16T23:47:46.034Z,21.63
2018-06-16T23:50:14.583Z,18.83
2018-06-16T23:52:43.154Z,18.03
2018-06-16T23:55:11.698Z,22.53
2018-06-16T23:57:40.239Z,24.87
